Time;durP1;ratioP1;P1;durP2;ratioP2;P2;SDS_P1;SDS_P2;PMS_P1;PMS_P2;Temp;Humidity;BMP_temperature;BMP_pressure;BME280_temperature;BME280_humidity;BME280_pressure;Samples;Min_cycle;Max_cycle;Signal;HPM_P1;HPM_P2
2023/09/28 00:01:18;;;;;;;4.60;2.97;;;;;;;17.57;100.00;101214.88;5022425;28;20698;-92
2023/09/28 00:03:44;;;;;;;5.97;3.10;;;;;;;17.56;100.00;101229.53;5025651;28;20093;-93
2023/09/28 00:06:13;;;;;;;6.07;3.10;;;;;;;17.52;100.00;101237.44;5030796;28;20052;-93
2023/09/28 00:08:39;;;;;;;6.57;3.00;;;;;;;17.37;100.00;101227.66;5013807;28;20054;-92
2023/09/28 00:11:05;;;;;;;7.00;3.30;;;;;;;17.41;100.00;101236.81;5033481;28;20069;-95
2023/09/28 00:13:31;;;;;;;8.55;2.88;;;;;;;17.35;100.00;101235.25;5022281;28;20022;-93
2023/09/28 00:15:57;;;;;;;4.80;3.20;;;;;;;17.26;100.00;101227.00;5017942;28;20030;-93
2023/09/28 00:18:23;;;;;;;5.07;3.10;;;;;;;17.22;100.00;101230.59;5013114;28;20037;-93
2023/09/28 00:20:49;;;;;;;4.57;2.95;;;;;;;17.16;100.00;101231.78;5024662;28;20029;-93
2023/09/28 00:23:16;;;;;;;3.95;3.10;;;;;;;17.16;100.00;101231.78;5030008;28;20029;-94
2023/09/28 00:25:41;;;;;;;5.18;2.75;;;;;;;17.17;100.00;101241.47;5031664;28;20131;-94
2023/09/28 00:28:07;;;;;;;6.23;3.03;;;;;;;17.15;100.00;101244.50;5031011;28;20146;-93
2023/09/28 00:30:32;;;;;;;5.50;3.20;;;;;;;17.10;100.00;101245.38;5031889;28;20030;-93
2023/09/28 00:32:57;;;;;;;9.10;2.83;;;;;;;17.11;100.00;101251.59;5031551;28;20032;-94
2023/09/28 00:35:24;;;;;;;4.10;2.70;;;;;;;17.09;100.00;101248.34;5031351;28;20030;-92
2023/09/28 00:37:50;;;;;;;6.22;2.97;;;;;;;17.07;100.00;101251.38;5028439;28;20025;-92
2023/09/28 00:40:18;;;;;;;5.73;3.17;;;;;;;17.05;100.00;101242.72;5031618;28;20033;-94
2023/09/28 00:42:46;;;;;;;3.47;2.88;;;;;;;17.02;100.00;101259.56;5031984;28;20442;-92
2023/09/28 00:45:11;;;;;;;5.55;3.10;;;;;;;16.89;100.00;101260.25;5030641;28;20032;-93
2023/09/28 00:47:39;;;;;;;5.68;3.00;;;;;;;16.89;100.00;101269.16;5031430;28;20073;-93
2023/09/28 00:50:15;;;;;;;6.43;2.97;;;;;;;16.87;100.00;101275.97;5029776;28;20438;-94
2023/09/28 00:52:41;;;;;;;7.63;3.00;;;;;;;16.81;100.00;101269.81;5032069;28;20025;-93
2023/09/28 00:55:09;;;;;;;3.95;2.90;;;;;;;16.75;100.00;101269.06;5029159;28;20566;-93
2023/09/28 00:57:35;;;;;;;6.90;3.13;;;;;;;16.70;100.00;101274.53;5029890;28;20075;-93
2023/09/28 01:00:18;;;;;;;6.07;2.75;;;;;;;16.64;100.00;101268.38;5029742;28;20029;-93
2023/09/28 01:02:43;;;;;;;7.00;3.35;;;;;;;16.55;100.00;101261.19;5031250;28;20030;-93
2023/09/28 01:05:09;;;;;;;3.20;2.87;;;;;;;16.39;100.00;101249.72;5052987;22;20049;-95
2023/09/28 01:07:34;;;;;;;3.58;3.00;;;;;;;16.39;100.00;101255.94;5032200;28;20041;-93
2023/09/28 01:10:00;;;;;;;4.30;2.97;;;;;;;16.29;100.00;101240.63;5031773;28;20021;-94
2023/09/28 01:12:26;;;;;;;4.55;2.97;;;;;;;16.24;100.00;101246.09;5032946;28;20708;-93
2023/09/28 01:19:54;;;;;;;7.05;3.13;;;;;;;16.06;100.00;101263.84;5029989;28;20134;-93
2023/09/28 01:22:21;;;;;;;4.77;3.03;;;;;;;16.03;100.00;101259.78;5038324;28;20025;-93
2023/09/28 01:27:22;;;;;;;3.75;3.08;;;;;;;15.99;100.00;101266.84;5042944;22;20045;-93
2023/09/28 01:29:47;;;;;;;4.77;3.47;;;;;;;15.93;100.00;101270.69;5046768;28;20032;-94
2023/09/28 01:32:13;;;;;;;5.07;3.07;;;;;;;15.83;100.00;101268.03;5044138;22;20060;-93
2023/09/28 01:34:38;;;;;;;3.72;2.97;;;;;;;15.80;100.00;101263.19;5032516;28;20064;-94
2023/09/28 01:37:06;;;;;;;5.43;3.10;;;;;;;15.76;100.00;101257.56;5031575;28;20026;-92
2023/09/28 01:39:34;;;;;;;3.75;3.10;;;;;;;15.77;100.00;101259.16;5032229;28;20040;-92
2023/09/28 01:42:00;;;;;;;7.03;3.20;;;;;;;15.69;100.00;101243.59;5018930;28;20029;-94
2023/09/28 01:47:00;;;;;;;4.57;2.77;;;;;;;15.41;100.00;101229.72;5262993;22;20042;-93
2023/09/28 01:49:26;;;;;;;6.47;3.30;;;;;;;15.49;100.00;101248.03;5010921;28;20025;-93
2023/09/28 01:51:51;;;;;;;5.27;3.50;;;;;;;15.57;100.00;101277.13;5011991;28;20050;-93
2023/09/28 01:54:17;;;;;;;7.30;3.30;;;;;;;15.47;100.00;101265.59;5011321;28;20173;-92
2023/09/28 01:56:42;;;;;;;3.75;3.30;;;;;;;15.49;100.00;101274.22;5012228;28;20038;-93
2023/09/28 01:59:07;;;;;;;4.10;3.33;;;;;;;15.51;100.00;101272.06;5016710;28;20138;-92
2023/09/28 02:01:33;;;;;;;5.37;3.40;;;;;;;15.48;100.00;101276.13;5016883;28;20457;-94
2023/09/28 02:03:59;;;;;;;5.40;3.25;;;;;;;15.48;100.00;101281.53;5022243;28;20032;-92
2023/09/28 02:06:24;;;;;;;4.90;3.10;;;;;;;15.36;100.00;101273.78;5022106;28;20078;-94
2023/09/28 02:08:50;;;;;;;6.70;3.20;;;;;;;15.39;100.00;101296.69;5026819;28;20137;-91
2023/09/28 02:11:15;;;;;;;5.33;3.63;;;;;;;15.36;100.00;101286.44;5018359;28;20826;-91
2023/09/28 02:13:41;;;;;;;7.77;3.13;;;;;;;15.33;100.00;101289.72;5018537;28;20100;-91
2023/09/28 02:16:11;;;;;;;5.25;3.35;;;;;;;15.26;100.00;101293.53;5018637;28;20032;-91
2023/09/28 02:18:37;;;;;;;4.30;3.10;;;;;;;15.23;100.00;101290.59;5017707;28;20018;-90
2023/09/28 02:21:03;;;;;;;7.13;3.63;;;;;;;15.27;100.00;101295.16;5037443;28;20081;-91
2023/09/28 02:23:31;;;;;;;6.17;3.67;;;;;;;15.29;100.00;101298.38;5037389;28;20025;-90
2023/09/28 02:26:05;;;;;;;4.53;3.30;;;;;;;15.25;100.00;101289.22;5073894;23;20034;-91
2023/09/28 02:28:32;;;;;;;7.28;3.80;;;;;;;15.24;100.00;101290.31;5031807;28;20078;-91
2023/09/28 02:31:05;;;;;;;4.55;3.60;;;;;;;15.19;100.00;101303.03;5018251;28;20030;-91
2023/09/28 02:33:30;;;;;;;5.60;3.50;;;;;;;15.11;100.00;101293.63;5032088;28;20060;-91
2023/09/28 02:35:55;;;;;;;5.37;3.67;;;;;;;15.12;100.00;101303.31;5033912;28;20320;-91
2023/09/28 02:38:21;;;;;;;5.00;3.90;;;;;;;15.06;100.00;101301.72;5018516;28;20032;-91
2023/09/28 02:40:46;;;;;;;5.17;3.30;;;;;;;15.08;100.00;101302.25;5016575;28;20029;-91
2023/09/28 02:43:12;;;;;;;8.30;3.60;;;;;;;15.04;100.00;101302.00;5035124;28;20018;-91
2023/09/28 02:45:37;;;;;;;4.83;3.70;;;;;;;14.98;100.00;101303.91;5016061;28;20371;-90
2023/09/28 02:48:03;;;;;;;6.73;3.80;;;;;;;14.93;100.00;101312.03;5021341;28;20086;-92
2023/09/28 02:50:28;;;;;;;5.03;3.95;;;;;;;14.97;100.00;101306.88;5026426;28;20041;-91
2023/09/28 02:52:53;;;;;;;6.20;3.83;;;;;;;15.03;100.00;101315.75;5015986;28;20026;-90
2023/09/28 02:55:20;;;;;;;5.00;3.80;;;;;;;14.83;100.00;101282.38;5056669;22;20054;-92
2023/09/28 02:57:46;;;;;;;10.15;4.00;;;;;;;15.02;100.00;101319.53;5035199;22;20045;-91
2023/09/28 03:00:14;;;;;;;5.00;4.30;;;;;;;15.01;100.00;101309.81;5035735;28;20018;-91
2023/09/28 03:02:39;;;;;;;5.80;3.85;;;;;;;14.96;100.00;101308.78;5037161;28;20507;-90
2023/09/28 03:05:07;;;;;;;5.27;3.97;;;;;;;14.98;100.00;101319.28;5036867;28;20033;-91
2023/09/28 03:07:32;;;;;;;8.50;3.80;;;;;;;14.94;100.00;101316.34;5036673;28;20036;-91
2023/09/28 03:10:04;;;;;;;5.37;4.33;;;;;;;14.94;100.00;101321.75;5046667;28;20025;-91
2023/09/28 03:12:30;;;;;;;6.78;4.25;;;;;;;14.96;100.00;101318.75;5042879;28;20032;-91
2023/09/28 03:14:55;;;;;;;4.70;3.87;;;;;;;14.83;100.00;101301.25;5279002;22;20065;-91
2023/09/28 03:17:21;;;;;;;6.17;4.40;;;;;;;14.92;100.00;101318.50;5055697;28;20029;-91
2023/09/28 03:19:46;;;;;;;5.65;4.00;;;;;;;14.95;100.00;101325.25;5056164;28;20084;-90
2023/09/28 03:22:12;;;;;;;5.40;3.93;;;;;;;14.90;100.00;101317.97;5055557;28;20041;-91
2023/09/28 03:24:37;;;;;;;6.13;4.00;;;;;;;14.95;100.00;101327.94;5054731;28;20045;-90
2023/09/28 03:27:03;;;;;;;6.75;3.80;;;;;;;14.92;100.00;101328.47;5038723;28;20061;-90
2023/09/28 03:29:28;;;;;;;6.97;4.03;;;;;;;14.92;100.00;101332.00;5033224;28;20025;-90
2023/09/28 03:31:54;;;;;;;7.57;4.67;;;;;;;14.87;100.00;101332.00;5030949;28;20083;-90
2023/09/28 03:34:19;;;;;;;5.85;3.60;;;;;;;14.90;100.00;101339.56;5032077;28;20032;-91
2023/09/28 03:36:45;;;;;;;10.33;3.87;;;;;;;14.89;100.00;101332.53;5033982;28;20037;-90
2023/09/28 03:39:10;;;;;;;6.55;3.83;;;;;;;14.86;100.00;101346.56;5033082;28;20032;-93
2023/09/28 03:41:37;;;;;;;5.27;4.17;;;;;;;14.80;100.00;101340.41;5034411;28;20029;-91
2023/09/28 03:44:02;;;;;;;4.82;3.58;;;;;;;14.77;100.00;101343.63;5033639;28;20034;-92
2023/09/28 03:46:28;;;;;;;5.37;3.70;;;;;;;14.78;100.00;101357.94;5033418;28;20060;-93
2023/09/28 03:48:53;;;;;;;6.17;3.90;;;;;;;14.78;100.00;101374.13;5032764;28;20641;-93
2023/09/28 03:51:18;;;;;;;6.67;4.23;;;;;;;14.76;100.00;101370.91;5034167;28;20021;-93
2023/09/28 03:53:44;;;;;;;5.53;3.90;;;;;;;14.66;100.00;101366.28;5027599;28;20412;-92
2023/09/28 05:17:01;;;;;;;10.23;4.63;;;;;;;14.05;100.00;101430.72;5012771;22;20362;-86
2023/09/28 05:19:26;;;;;;;9.60;4.28;;;;;;;14.01;100.00;101439.56;5010575;28;20503;-84
2023/09/28 05:21:51;;;;;;;10.40;4.30;;;;;;;14.00;100.00;101446.03;5010431;28;20061;-86
2023/09/28 05:24:17;;;;;;;8.50;3.73;;;;;;;13.96;100.00;101453.06;5004799;28;20033;-86
2023/09/28 05:26:43;;;;;;;8.90;3.83;;;;;;;13.90;100.00;101450.34;5011280;28;20030;-87
2023/09/28 05:29:08;;;;;;;8.10;3.88;;;;;;;13.84;100.00;101456.78;5009849;28;20084;-87
2023/09/28 05:31:33;;;;;;;11.57;4.23;;;;;;;13.83;100.00;101462.44;5009500;28;20049;-87
2023/09/28 05:33:59;;;;;;;7.73;4.10;;;;;;;13.77;100.00;101470.50;5010858;28;20125;-87
2023/09/28 05:36:24;;;;;;;8.93;4.00;;;;;;;13.71;100.00;101471.53;5009970;28;20122;-87
2023/09/28 05:38:50;;;;;;;9.27;3.60;;;;;;;13.70;100.00;101469.13;5010883;28;20029;-87
2023/09/28 05:41:15;;;;;;;9.03;4.07;;;;;;;13.68;100.00;101477.47;5008092;28;20076;-87
2023/09/28 05:43:41;;;;;;;8.88;4.03;;;;;;;13.58;100.00;101474.72;5008050;28;20101;-88
2023/09/28 05:46:09;;;;;;;9.50;4.20;;;;;;;13.60;100.00;101483.34;5010048;28;20105;-87
2023/09/28 05:48:34;;;;;;;11.75;4.70;;;;;;;13.53;100.00;101482.75;5010670;28;20021;-87
2023/09/28 05:51:00;;;;;;;9.00;4.00;;;;;;;13.51;100.00;101493.78;5009426;28;20022;-87
2023/09/28 05:53:25;;;;;;;11.55;4.53;;;;;;;13.52;100.00;101483.81;5010724;28;20049;-87
2023/09/28 05:55:51;;;;;;;13.70;4.33;;;;;;;13.54;100.00;101485.19;5005890;28;20033;-87
2023/09/28 05:58:16;;;;;;;11.90;4.23;;;;;;;13.54;100.00;101497.84;5010506;28;20404;-85
2023/09/28 06:00:42;;;;;;;12.43;4.23;;;;;;;13.53;100.00;101497.03;5008540;28;20289;-88
2023/09/28 06:03:07;;;;;;;13.57;4.27;;;;;;;13.59;100.00;101517.53;5009500;28;20636;-88
2023/09/28 06:05:33;;;;;;;11.13;4.33;;;;;;;13.59;100.00;101511.34;4993819;28;20029;-87
2023/09/28 06:07:59;;;;;;;11.93;3.83;;;;;;;13.60;100.00;101507.56;5004400;28;20030;-87
2023/09/28 06:10:26;;;;;;;10.53;4.63;;;;;;;13.58;100.00;101518.63;4990162;28;20033;-87
2023/09/28 06:12:52;;;;;;;10.83;4.20;;;;;;;13.58;100.00;101517.78;5005886;28;20395;-88
2023/09/28 06:15:17;;;;;;;10.00;3.92;;;;;;;13.60;100.00;101505.69;5009209;28;20559;-84
2023/09/28 06:17:42;;;;;;;10.87;3.97;;;;;;;13.60;100.00;101502.19;5006134;28;20032;-91
2023/09/28 06:20:08;;;;;;;11.60;3.80;;;;;;;13.63;100.00;101504.38;5010585;28;20022;-85
2023/09/28 06:22:34;;;;;;;12.45;4.25;;;;;;;13.66;100.00;101503.84;5010439;28;20064;-83
2023/09/28 06:24:59;;;;;;;12.77;4.03;;;;;;;13.66;100.00;101511.91;5007435;28;20050;-84
2023/09/28 06:27:28;;;;;;;10.50;4.07;;;;;;;13.70;100.00;101523.78;5008736;28;20026;-84
2023/09/28 06:29:56;;;;;;;12.13;4.03;;;;;;;13.71;100.00;101525.41;5009413;28;20657;-84
2023/09/28 06:32:22;;;;;;;12.30;4.10;;;;;;;13.74;100.00;101530.25;5008445;28;20022;-85
2023/09/28 06:34:47;;;;;;;14.25;3.90;;;;;;;13.78;100.00;101534.06;5009484;28;20030;-85
2023/09/28 06:37:13;;;;;;;15.00;3.60;;;;;;;13.83;100.00;101533.25;5003551;28;20400;-86
2023/09/28 06:39:38;;;;;;;14.80;3.17;;;;;;;13.88;100.00;101533.28;5008187;28;20034;-85
2023/09/28 06:42:04;;;;;;;18.52;3.80;;;;;;;13.96;100.00;101540.06;5005244;28;20038;-85
2023/09/28 06:44:30;;;;;;;15.82;3.40;;;;;;;13.98;100.00;101537.91;5008388;28;20034;-85
2023/09/28 06:46:57;;;;;;;10.40;3.00;;;;;;;14.03;100.00;101543.34;5014386;28;20041;-85
2023/09/28 06:49:22;;;;;;;11.00;3.10;;;;;;;14.04;100.00;101538.75;5014719;28;20032;-84
2023/09/28 06:51:49;;;;;;;13.18;2.95;;;;;;;14.10;100.00;101537.69;5006367;28;20030;-85
2023/09/28 06:54:15;;;;;;;19.23;4.10;;;;;;;14.15;100.00;101539.59;5004868;28;20031;-86
2023/09/28 06:56:40;;;;;;;11.35;3.42;;;;;;;14.29;100.00;101562.28;5010262;28;20032;-85
2023/09/28 06:59:07;;;;;;;15.13;3.53;;;;;;;14.34;100.00;101565.00;5011390;28;20033;-85
2023/09/28 07:01:33;;;;;;;16.38;3.58;;;;;;;14.41;100.00;101555.84;5011270;28;20033;-85
2023/09/28 07:03:59;;;;;;;16.50;3.67;;;;;;;14.54;100.00;101560.72;5010507;28;20044;-85
2023/09/28 07:06:24;;;;;;;18.30;3.63;;;;;;;14.68;100.00;101569.94;5009353;28;20026;-86
2023/09/28 07:08:50;;;;;;;17.57;3.50;;;;;;;14.77;100.00;101577.53;5008375;28;20026;-85
2023/09/28 07:11:15;;;;;;;18.63;4.05;;;;;;;14.88;100.00;101584.53;5001810;28;20033;-85
2023/09/28 07:13:41;;;;;;;15.03;3.47;;;;;;;15.04;100.00;101576.47;5010672;28;20049;-86
2023/09/28 07:16:07;;;;;;;17.00;3.90;;;;;;;15.23;100.00;101580.25;5006074;28;20038;-86
2023/09/28 07:18:33;;;;;;;17.13;3.47;;;;;;;15.40;100.00;101565.63;5009571;28;20026;-86
2023/09/28 07:20:58;;;;;;;22.98;3.45;;;;;;;15.59;100.00;101565.88;5009076;28;20121;-86
2023/09/28 07:23:24;;;;;;;17.20;3.70;;;;;;;15.71;100.00;101557.47;5000088;28;20037;-86
2023/09/28 07:25:51;;;;;;;19.40;3.47;;;;;;;15.77;100.00;101580.69;5005202;28;20050;-87
2023/09/28 07:28:16;;;;;;;18.98;3.63;;;;;;;15.74;100.00;101565.03;5008079;28;20041;-84
2023/09/28 07:30:42;;;;;;;24.03;3.40;;;;;;;15.60;100.00;101556.72;5011527;28;20069;-86
2023/09/28 07:33:07;;;;;;;17.15;3.03;;;;;;;15.44;100.00;101564.03;5010650;28;20029;-85
2023/09/28 07:35:33;;;;;;;21.23;3.63;;;;;;;15.35;100.00;101562.94;5009567;28;20030;-86
2023/09/28 07:37:58;;;;;;;21.38;3.05;;;;;;;15.31;100.00;101595.06;5011342;28;20069;-84
2023/09/28 07:40:25;;;;;;;21.17;3.30;;;;;;;15.31;100.00;101602.38;5007773;28;20037;-87
2023/09/28 07:42:51;;;;;;;24.48;4.22;;;;;;;15.36;100.00;101596.97;5007280;28;20040;-86
2023/09/28 07:45:18;;;;;;;22.33;3.27;;;;;;;15.39;100.00;101591.03;5007386;28;20033;-86
2023/09/28 07:47:44;;;;;;;23.02;3.28;;;;;;;15.47;100.00;101595.88;5011237;28;20037;-84
2023/09/28 07:50:14;;;;;;;18.58;3.28;;;;;;;15.57;100.00;101605.88;5010182;28;20038;-84
2023/09/28 07:52:40;;;;;;;24.58;3.95;;;;;;;15.69;100.00;101597.47;5009399;28;20117;-83
2023/09/28 07:55:07;;;;;;;19.35;3.70;;;;;;;15.74;100.00;101600.16;5009152;28;20026;-85
2023/09/28 07:57:32;;;;;;;17.05;3.25;;;;;;;15.83;100.00;101609.31;5009561;28;20145;-84
2023/09/28 07:59:59;;;;;;;25.77;3.50;;;;;;;15.92;100.00;101614.19;5010341;28;20049;-86
2023/09/28 08:02:25;;;;;;;22.25;3.58;;;;;;;16.01;100.00;101610.63;5010480;28;20021;-84
2023/09/28 08:04:53;;;;;;;23.07;3.50;;;;;;;16.10;100.00;101608.19;5010157;28;20431;-87
2023/09/28 08:07:18;;;;;;;25.07;3.50;;;;;;;16.21;100.00;101617.06;5009339;28;20296;-88
2023/09/28 08:09:44;;;;;;;20.02;3.15;;;;;;;16.29;100.00;101626.50;5009708;28;20118;-91
2023/09/28 08:12:09;;;;;;;21.33;3.63;;;;;;;16.37;100.00;101628.63;5011200;28;20492;-86
2023/09/28 08:14:35;;;;;;;24.43;3.63;;;;;;;16.48;100.00;101630.19;5009968;28;20034;-86
2023/09/28 08:17:00;;;;;;;23.63;3.50;;;;;;;16.54;100.00;101632.88;5009066;28;20048;-87
2023/09/28 08:19:25;;;;;;;21.67;3.37;;;;;;;16.64;100.00;101632.81;5010233;28;20049;-86
2023/09/28 08:21:51;;;;;;;28.43;3.80;;;;;;;16.74;100.00;101632.75;5010254;28;20034;-87
2023/09/28 08:24:17;;;;;;;19.40;3.42;;;;;;;16.89;100.00;101631.84;5009539;28;20378;-86
2023/09/28 08:26:42;;;;;;;26.70;3.57;;;;;;;17.00;100.00;101623.69;5008855;28;20034;-87
2023/09/28 08:29:08;;;;;;;22.20;3.67;;;;;;;17.09;100.00;101628.22;5000799;28;20457;-86
2023/09/28 08:31:33;;;;;;;20.90;3.80;;;;;;;17.20;100.00;101639.78;5003136;28;20037;-87
2023/09/28 08:33:59;;;;;;;17.75;3.00;;;;;;;17.33;100.00;101637.50;5007605;28;20026;-87
2023/09/28 08:36:26;;;;;;;21.10;3.67;;;;;;;17.43;100.00;101637.44;5010489;28;20432;-87
2023/09/28 08:38:51;;;;;;;19.70;3.28;;;;;;;17.54;100.00;101638.97;5009742;28;20075;-87
2023/09/28 08:41:25;;;;;;;23.40;3.45;;;;;;;17.66;100.00;101654.00;5026549;28;20033;-90
2023/09/28 08:43:54;;;;;;;22.47;3.63;;;;;;;17.78;100.00;101650.91;5010517;28;20029;-85
2023/09/28 08:46:23;;;;;;;23.25;3.33;;;;;;;17.82;100.00;101655.47;5002629;28;20038;-83
2023/09/28 08:48:50;;;;;;;19.60;3.10;;;;;;;17.95;100.00;101672.97;5003641;28;20034;-85
2023/09/28 08:51:16;;;;;;;25.60;3.78;;;;;;;18.01;100.00;101674.56;5008462;28;20025;-84
2023/09/28 08:53:43;;;;;;;18.35;3.85;;;;;;;18.14;100.00;101670.38;5009490;28;20030;-84
2023/09/28 08:56:09;;;;;;;22.00;4.30;;;;;;;18.43;100.00;101684.97;5009538;28;20426;-84
2023/09/28 08:58:35;;;;;;;16.57;3.63;;;;;;;18.54;100.00;101685.59;5009571;28;20022;-84
2023/09/28 09:01:02;;;;;;;21.27;3.97;;;;;;;18.51;100.00;101681.59;5009098;28;20034;-83
2023/09/28 09:03:28;;;;;;;19.80;4.18;;;;;;;18.45;100.00;101683.56;5010547;28;20033;-84
2023/09/28 09:05:55;;;;;;;22.20;4.20;;;;;;;18.36;100.00;101679.06;5009604;28;20021;-82
2023/09/28 09:08:27;;;;;;;19.00;4.30;;;;;;;18.19;100.00;101684.94;5007752;28;20077;-84
2023/09/28 09:10:53;;;;;;;22.07;4.43;;;;;;;18.07;100.00;101688.09;5007693;28;20026;-85
2023/09/28 09:13:19;;;;;;;19.47;4.40;;;;;;;18.13;100.00;101681.50;5008614;28;20293;-84
2023/09/28 09:15:45;;;;;;;20.92;3.97;;;;;;;18.13;100.00;101692.34;5009927;28;20034;-88
2023/09/28 09:18:21;;;;;;;19.58;5.03;;;;;;;18.09;100.00;101685.88;5009686;28;20041;-86
2023/09/28 09:20:48;;;;;;;15.02;4.05;;;;;;;18.14;100.00;101677.69;5008178;28;20112;-85
2023/09/28 09:23:14;;;;;;;16.80;4.55;;;;;;;18.28;100.00;101675.09;5010006;28;20026;-86
2023/09/28 09:25:41;;;;;;;19.73;4.88;;;;;;;18.38;100.00;101683.09;5009604;28;20034;-85
2023/09/28 09:28:06;;;;;;;22.80;4.70;;;;;;;18.59;100.00;101675.53;5007967;28;20044;-88
2023/09/28 09:30:37;;;;;;;22.47;4.57;;;;;;;18.92;100.00;101686.47;5009635;28;20842;-86
2023/09/28 09:33:06;;;;;;;19.42;4.00;;;;;;;19.32;100.00;101688.09;5008382;28;20036;-86
2023/09/28 09:35:33;;;;;;;19.73;4.70;;;;;;;19.67;100.00;101694.03;5008258;28;20432;-87
2023/09/28 09:37:59;;;;;;;19.77;3.97;;;;;;;19.94;99.62;101703.34;5006349;28;21216;-85
2023/09/28 09:40:25;;;;;;;19.33;3.60;;;;;;;19.99;98.83;101695.09;5010287;28;20042;-85
2023/09/28 09:42:51;;;;;;;22.42;3.97;;;;;;;20.00;95.76;101693.19;5008652;28;20084;-85
2023/09/28 09:45:18;;;;;;;19.30;3.40;;;;;;;19.94;94.86;101696.00;5008723;28;20025;-85
2023/09/28 09:47:47;;;;;;;23.70;3.60;;;;;;;19.85;93.52;101699.69;5005954;28;20043;-84
2023/09/28 09:50:14;;;;;;;20.20;3.70;;;;;;;19.89;95.01;101701.53;5007969;28;20116;-84
2023/09/28 09:52:42;;;;;;;18.35;3.75;;;;;;;19.88;96.04;101707.28;5007491;28;20560;-84
2023/09/28 09:55:08;;;;;;;27.08;3.70;;;;;;;19.74;97.01;101701.78;5009593;28;20396;-85
2023/09/28 09:57:37;;;;;;;19.98;3.40;;;;;;;19.43;96.14;101703.09;5017223;28;20021;-84
2023/09/28 10:00:08;;;;;;;18.30;3.80;;;;;;;19.15;97.15;101713.88;5010033;28;20026;-84
2023/09/28 10:02:36;;;;;;;21.57;3.53;;;;;;;18.95;99.10;101712.25;5010695;28;20057;-84
2023/09/28 10:05:03;;;;;;;24.85;3.80;;;;;;;19.10;100.00;101705.78;5009525;28;20033;-84
2023/09/28 10:07:32;;;;;;;20.20;3.42;;;;;;;19.36;100.00;101698.06;5007237;28;20045;-84
2023/09/28 10:09:58;;;;;;;18.38;3.45;;;;;;;19.60;99.69;101696.31;5004668;28;20037;-84
2023/09/28 10:12:25;;;;;;;17.88;3.42;;;;;;;19.79;98.63;101701.69;5010099;28;20073;-82
2023/09/28 10:14:52;;;;;;;20.83;4.00;;;;;;;19.89;96.44;101692.59;5009264;28;20108;-82
2023/09/28 10:17:18;;;;;;;15.57;3.50;;;;;;;19.80;96.39;101687.78;5007425;28;20324;-84
2023/09/28 10:19:44;;;;;;;17.45;2.90;;;;;;;19.67;94.21;101672.28;5012655;28;20038;-82
2023/09/28 10:22:14;;;;;;;17.20;3.45;;;;;;;19.57;95.02;101669.72;5013729;28;20025;-84
2023/09/28 10:24:39;;;;;;;18.40;3.17;;;;;;;19.51;94.33;101664.38;5013242;28;20034;-82
2023/09/28 10:27:09;;;;;;;13.83;2.90;;;;;;;19.50;95.64;101664.66;5013090;28;20021;-82
2023/09/28 10:29:36;;;;;;;19.33;3.28;;;;;;;19.54;95.31;101662.19;5009906;28;20018;-82
2023/09/28 10:32:08;;;;;;;18.40;3.28;;;;;;;19.64;95.14;101664.72;5012593;28;20526;-83
2023/09/28 10:34:33;;;;;;;16.13;3.10;;;;;;;19.79;94.25;101664.44;5012538;28;20421;-83
2023/09/28 10:37:08;;;;;;;17.17;3.30;;;;;;;20.02;94.36;101671.91;5012655;28;20038;-83
2023/09/28 10:39:33;;;;;;;19.65;3.30;;;;;;;20.13;91.38;101667.91;5011473;28;20813;-84
2023/09/28 10:42:10;;;;;;;17.70;3.20;;;;;;;20.25;94.99;101683.75;5010845;28;20042;-84
2023/09/28 10:44:46;;;;;;;15.40;3.28;;;;;;;20.27;93.19;101678.78;5011133;28;20018;-84
2023/09/28 10:47:11;;;;;;;13.45;3.00;;;;;;;20.16;90.76;101666.50;5013109;28;20030;-84
2023/09/28 10:49:36;;;;;;;23.93;3.87;;;;;;;20.10;91.65;101680.19;5011208;28;20029;-84
2023/09/28 10:52:02;;;;;;;18.73;3.47;;;;;;;20.20;92.65;101684.63;5013257;28;20033;-84
2023/09/28 10:54:27;;;;;;;21.57;3.50;;;;;;;20.46;92.08;101689.56;5008187;28;20058;-83
2023/09/28 10:56:53;;;;;;;13.23;3.22;;;;;;;20.76;90.48;101678.34;5011001;28;20092;-83
2023/09/28 10:59:19;;;;;;;17.93;3.57;;;;;;;21.08;87.45;101688.25;5011636;28;20045;-84
2023/09/28 11:01:46;;;;;;;16.38;3.13;;;;;;;21.07;85.05;101683.06;5008741;28;20022;-85
2023/09/28 11:04:12;;;;;;;19.23;3.53;;;;;;;20.98;83.98;101692.00;4992898;28;20030;-85
2023/09/28 11:06:38;;;;;;;15.13;3.00;;;;;;;20.89;87.66;101688.38;4993102;28;20037;-84
2023/09/28 11:09:04;;;;;;;20.20;3.20;;;;;;;21.00;86.92;101692.47;5005447;28;20427;-84
2023/09/28 11:11:30;;;;;;;15.35;3.00;;;;;;;20.98;84.46;101697.44;5013164;28;20112;-84
2023/09/28 11:13:59;;;;;;;20.70;3.53;;;;;;;21.07;85.45;101704.88;5009862;28;20433;-84
2023/09/28 11:16:26;;;;;;;16.83;3.50;;;;;;;21.35;84.54;101708.28;5012162;28;20107;-85
2023/09/28 11:18:54;;;;;;;17.02;3.10;;;;;;;21.73;83.98;101704.38;5012188;28;20026;-84
2023/09/28 11:21:21;;;;;;;13.63;2.67;;;;;;;22.18;82.79;101703.47;5010082;28;20029;-84
2023/09/28 11:23:48;;;;;;;18.05;3.05;;;;;;;22.35;79.64;101694.50;5009822;28;20492;-84
2023/09/28 11:26:14;;;;;;;17.23;3.13;;;;;;;22.38;78.72;101696.63;5011547;28;20481;-83
2023/09/28 11:28:40;;;;;;;16.77;3.07;;;;;;;22.40;79.71;101702.56;5010566;28;20443;-84
2023/09/28 11:31:12;;;;;;;14.50;2.80;;;;;;;22.28;78.65;101694.16;5012199;28;20107;-84
2023/09/28 11:33:38;;;;;;;19.73;3.42;;;;;;;22.14;77.61;101692.38;5010299;28;20053;-84
2023/09/28 11:36:05;;;;;;;14.85;3.10;;;;;;;22.09;77.13;101706.16;4998987;28;20473;-85
2023/09/28 11:38:32;;;;;;;11.90;2.80;;;;;;;22.09;75.97;101701.50;5011882;28;20022;-85
2023/09/28 11:40:58;;;;;;;15.53;3.63;;;;;;;22.15;77.66;101693.19;5009385;28;20300;-83
2023/09/28 11:43:24;;;;;;;16.30;3.30;;;;;;;22.38;76.18;101702.06;5011384;28;20018;-82
2023/09/28 11:45:50;;;;;;;16.42;3.10;;;;;;;22.42;76.78;101705.81;5011396;28;20405;-83
2023/09/28 11:48:21;;;;;;;13.65;3.35;;;;;;;22.43;77.55;101696.50;5011182;28;20026;-83
2023/09/28 11:50:47;;;;;;;14.73;3.05;;;;;;;22.41;74.70;101700.63;5011850;28;20533;-82
2023/09/28 11:53:14;;;;;;;12.00;3.00;;;;;;;22.50;77.06;101699.56;5011292;28;20041;-84
2023/09/28 11:55:41;;;;;;;19.75;3.45;;;;;;;22.47;73.08;101700.19;5010752;28;20045;-83
2023/09/28 11:58:08;;;;;;;19.50;3.55;;;;;;;22.48;74.34;101685.41;5010806;28;20045;-83
2023/09/28 12:00:35;;;;;;;13.07;3.28;;;;;;;22.51;73.75;101692.19;5008143;28;20073;-83
2023/09/28 12:03:02;;;;;;;10.93;3.05;;;;;;;22.41;71.07;101689.69;4991739;28;20029;-83
2023/09/28 12:05:28;;;;;;;21.17;3.43;;;;;;;22.34;71.58;101680.06;4996065;28;20026;-82
2023/09/28 12:07:54;;;;;;;13.00;3.40;;;;;;;22.44;73.18;101675.44;5010299;28;20386;-82
2023/09/28 12:10:20;;;;;;;15.60;3.28;;;;;;;22.32;74.28;101665.13;5008194;28;20033;-82
2023/09/28 12:12:46;;;;;;;13.57;3.05;;;;;;;22.29;74.68;101671.19;5011240;28;20022;-82
2023/09/28 12:15:12;;;;;;;15.60;3.10;;;;;;;22.32;72.62;101676.03;5010367;28;20136;-82
2023/09/28 12:17:41;;;;;;;15.60;3.27;;;;;;;22.30;70.97;101670.91;5011145;28;20868;-82
2023/09/28 12:20:12;;;;;;;13.93;3.17;;;;;;;22.27;71.84;101673.47;5011044;28;20080;-84
2023/09/28 12:22:42;;;;;;;16.30;3.00;;;;;;;22.14;72.10;101665.06;4995784;28;20028;-84
2023/09/28 12:25:09;;;;;;;21.40;3.70;;;;;;;22.16;72.40;101660.09;5010181;28;20486;-83
2023/09/28 12:27:36;;;;;;;13.93;2.93;;;;;;;22.13;74.04;101657.22;5009863;28;20037;-84
2023/09/28 12:30:02;;;;;;;12.00;3.53;;;;;;;22.21;73.04;101664.59;5011277;28;20432;-85
2023/09/28 12:32:29;;;;;;;13.20;3.13;;;;;;;22.39;72.50;101668.97;5010508;28;20027;-84
2023/09/28 12:34:57;;;;;;;15.73;2.80;;;;;;;22.39;72.13;101670.91;5010745;28;20043;-84
2023/09/28 12:37:23;;;;;;;12.13;3.17;;;;;;;22.33;71.33;101673.00;5008959;28;20508;-84
2023/09/28 12:39:50;;;;;;;18.33;2.80;;;;;;;22.43;72.23;101666.47;5013335;28;20018;-84
2023/09/28 12:42:15;;;;;;;13.27;3.08;;;;;;;22.75;69.71;101661.69;5009621;28;20488;-84